sensor_id;sensor_type;location;lat;lon;timestamp;temperature;humidity
14188;DHT22;7175;51.978;5.330;2023-03-11T00:00:23;1.70;99.90
14188;DHT22;7175;51.978;5.330;2023-03-11T00:02:54;1.70;99.90
14188;DHT22;7175;51.978;5.330;2023-03-11T00:05:25;1.70;99.90
14188;DHT22;7175;51.978;5.330;2023-03-11T00:07:53;1.70;99.90
14188;DHT22;7175;51.978;5.330;2023-03-11T00:10:27;1.70;99.90
14188;DHT22;7175;51.978;5.330;2023-03-11T00:12:56;1.70;99.90
14188;DHT22;7175;51.978;5.330;2023-03-11T00:15:24;1.60;99.90
14188;DHT22;7175;51.978;5.330;2023-03-11T00:17:53;1.60;99.90
14188;DHT22;7175;51.978;5.330;2023-03-11T00:20:25;1.60;99.90
14188;DHT22;7175;51.978;5.330;2023-03-11T00:22:53;1.50;99.90
14188;DHT22;7175;51.978;5.330;2023-03-11T00:25:26;1.50;99.90
14188;DHT22;7175;51.978;5.330;2023-03-11T00:27:54;1.50;99.90
14188;DHT22;7175;51.978;5.330;2023-03-11T00:30:23;1.50;99.90
14188;DHT22;7175;51.978;5.330;2023-03-11T00:32:52;1.40;99.90
14188;DHT22;7175;51.978;5.330;2023-03-11T00:35:24;1.40;99.90
14188;DHT22;7175;51.978;5.330;2023-03-11T00:37:54;1.40;99.90
14188;DHT22;7175;51.978;5.330;2023-03-11T00:40:26;1.30;99.90
14188;DHT22;7175;51.978;5.330;2023-03-11T00:42:54;1.30;99.90
14188;DHT22;7175;51.978;5.330;2023-03-11T00:45:23;1.30;99.90
14188;DHT22;7175;51.978;5.330;2023-03-11T00:47:51;1.20;99.90
14188;DHT22;7175;51.978;5.330;2023-03-11T00:50:21;1.20;99.90
14188;DHT22;7175;51.978;5.330;2023-03-11T00:52:50;1.20;99.90
14188;DHT22;7175;51.978;5.330;2023-03-11T00:55:20;1.20;99.90
14188;DHT22;7175;51.978;5.330;2023-03-11T00:57:52;1.20;99.90
14188;DHT22;7175;51.978;5.330;2023-03-11T01:00:21;1.20;99.90
14188;DHT22;7175;51.978;5.330;2023-03-11T01:02:51;1.20;99.90
14188;DHT22;7175;51.978;5.330;2023-03-11T01:05:22;1.10;99.90
14188;DHT22;7175;51.978;5.330;2023-03-11T01:07:50;1.10;99.90
14188;DHT22;7175;51.978;5.330;2023-03-11T01:10:19;1.00;99.90
14188;DHT22;7175;51.978;5.330;2023-03-11T01:12:47;1.00;99.90
14188;DHT22;7175;51.978;5.330;2023-03-11T01:15:26;1.00;99.90
14188;DHT22;7175;51.978;5.330;2023-03-11T01:17:54;1.10;99.90
14188;DHT22;7175;51.978;5.330;2023-03-11T01:20:23;1.00;99.90
14188;DHT22;7175;51.978;5.330;2023-03-11T01:22:51;0.90;99.90
14188;DHT22;7175;51.978;5.330;2023-03-11T01:25:20;0.90;99.90
14188;DHT22;7175;51.978;5.330;2023-03-11T01:27:49;0.90;99.90
14188;DHT22;7175;51.978;5.330;2023-03-11T01:30:19;0.90;99.90
14188;DHT22;7175;51.978;5.330;2023-03-11T01:32:48;0.80;99.90
14188;DHT22;7175;51.978;5.330;2023-03-11T01:35:18;0.80;99.90
14188;DHT22;7175;51.978;5.330;2023-03-11T01:37:47;0.80;99.90
14188;DHT22;7175;51.978;5.330;2023-03-11T01:40:19;0.80;99.90
14188;DHT22;7175;51.978;5.330;2023-03-11T01:42:48;0.80;99.90
14188;DHT22;7175;51.978;5.330;2023-03-11T01:45:33;0.80;99.90
14188;DHT22;7175;51.978;5.330;2023-03-11T01:48:04;0.80;99.90
14188;DHT22;7175;51.978;5.330;2023-03-11T01:50:35;0.70;99.90
14188;DHT22;7175;51.978;5.330;2023-03-11T01:53:04;0.70;99.90
14188;DHT22;7175;51.978;5.330;2023-03-11T01:55:33;0.70;99.90
14188;DHT22;7175;51.978;5.330;2023-03-11T01:58:06;0.70;99.90
14188;DHT22;7175;51.978;5.330;2023-03-11T02:00:36;0.70;99.90
14188;DHT22;7175;51.978;5.330;2023-03-11T02:03:08;0.70;99.90
14188;DHT22;7175;51.978;5.330;2023-03-11T02:05:39;0.70;99.90
14188;DHT22;7175;51.978;5.330;2023-03-11T02:08:08;0.70;99.90
14188;DHT22;7175;51.978;5.330;2023-03-11T02:10:37;0.70;99.90
14188;DHT22;7175;51.978;5.330;2023-03-11T02:13:05;0.60;99.90
14188;DHT22;7175;51.978;5.330;2023-03-11T02:15:36;0.60;99.90
14188;DHT22;7175;51.978;5.330;2023-03-11T02:18:06;0.60;99.90
14188;DHT22;7175;51.978;5.330;2023-03-11T02:20:43;0.60;99.90
14188;DHT22;7175;51.978;5.330;2023-03-11T02:23:12;0.60;99.90
14188;DHT22;7175;51.978;5.330;2023-03-11T02:25:47;0.60;99.90
14188;DHT22;7175;51.978;5.330;2023-03-11T02:28:20;0.50;99.90
14188;DHT22;7175;51.978;5.330;2023-03-11T02:30:49;0.50;99.90
14188;DHT22;7175;51.978;5.330;2023-03-11T02:33:18;0.50;99.90
14188;DHT22;7175;51.978;5.330;2023-03-11T02:35:46;0.50;99.90
14188;DHT22;7175;51.978;5.330;2023-03-11T02:38:14;0.50;99.90
14188;DHT22;7175;51.978;5.330;2023-03-11T02:40:49;0.50;99.90
14188;DHT22;7175;51.978;5.330;2023-03-11T02:43:22;0.50;99.90
14188;DHT22;7175;51.978;5.330;2023-03-11T02:45:51;0.50;99.90
14188;DHT22;7175;51.978;5.330;2023-03-11T02:48:20;0.50;99.90
14188;DHT22;7175;51.978;5.330;2023-03-11T02:50:50;0.50;99.90
14188;DHT22;7175;51.978;5.330;2023-03-11T02:53:18;0.50;99.90
14188;DHT22;7175;51.978;5.330;2023-03-11T02:55:46;0.50;99.90
14188;DHT22;7175;51.978;5.330;2023-03-11T02:58:15;0.40;99.90
14188;DHT22;7175;51.978;5.330;2023-03-11T03:00:44;0.40;99.90
14188;DHT22;7175;51.978;5.330;2023-03-11T03:03:12;0.40;99.90
14188;DHT22;7175;51.978;5.330;2023-03-11T03:05:41;0.40;99.90
14188;DHT22;7175;51.978;5.330;2023-03-11T03:08:09;0.40;99.90
14188;DHT22;7175;51.978;5.330;2023-03-11T03:10:37;0.30;99.90
14188;DHT22;7175;51.978;5.330;2023-03-11T03:13:06;0.30;99.90
14188;DHT22;7175;51.978;5.330;2023-03-11T03:15:34;0.30;99.90
14188;DHT22;7175;51.978;5.330;2023-03-11T03:18:04;0.30;99.90
14188;DHT22;7175;51.978;5.330;2023-03-11T03:20:32;0.20;99.90
14188;DHT22;7175;51.978;5.330;2023-03-11T03:23:00;0.20;99.90
14188;DHT22;7175;51.978;5.330;2023-03-11T03:25:28;0.20;99.90
14188;DHT22;7175;51.978;5.330;2023-03-11T03:27:56;0.20;99.90
14188;DHT22;7175;51.978;5.330;2023-03-11T03:30:24;0.20;99.90
14188;DHT22;7175;51.978;5.330;2023-03-11T03:32:54;0.10;99.90
14188;DHT22;7175;51.978;5.330;2023-03-11T03:35:23;0.20;99.90
14188;DHT22;7175;51.978;5.330;2023-03-11T03:37:51;0.10;99.90
14188;DHT22;7175;51.978;5.330;2023-03-11T03:40:22;0.10;99.90
14188;DHT22;7175;51.978;5.330;2023-03-11T03:42:50;0.10;99.90
14188;DHT22;7175;51.978;5.330;2023-03-11T03:45:18;0.10;99.90
14188;DHT22;7175;51.978;5.330;2023-03-11T03:47:47;0.00;99.90
14188;DHT22;7175;51.978;5.330;2023-03-11T03:50:15;0.00;99.90
14188;DHT22;7175;51.978;5.330;2023-03-11T03:52:44;0.00;99.90
14188;DHT22;7175;51.978;5.330;2023-03-11T03:55:12;0.00;99.90
14188;DHT22;7175;51.978;5.330;2023-03-11T03:57:41;0.00;99.90
14188;DHT22;7175;51.978;5.330;2023-03-11T04:00:10;0.00;99.90
14188;DHT22;7175;51.978;5.330;2023-03-11T04:02:38;0.00;99.90
14188;DHT22;7175;51.978;5.330;2023-03-11T04:05:07;0.00;99.90
14188;DHT22;7175;51.978;5.330;2023-03-11T04:07:35;0.00;99.90
14188;DHT22;7175;51.978;5.330;2023-03-11T04:10:06;0.00;99.90
14188;DHT22;7175;51.978;5.330;2023-03-11T04:12:34;-0.10;99.90
14188;DHT22;7175;51.978;5.330;2023-03-11T04:15:03;-0.10;99.90
14188;DHT22;7175;51.978;5.330;2023-03-11T04:17:31;-0.10;99.90
14188;DHT22;7175;51.978;5.330;2023-03-11T04:19:59;-0.10;99.90
14188;DHT22;7175;51.978;5.330;2023-03-11T04:22:27;-0.10;99.90
14188;DHT22;7175;51.978;5.330;2023-03-11T04:24:55;-0.20;99.90
14188;DHT22;7175;51.978;5.330;2023-03-11T04:27:25;-0.20;99.90
14188;DHT22;7175;51.978;5.330;2023-03-11T04:29:53;-0.20;99.90
14188;DHT22;7175;51.978;5.330;2023-03-11T04:32:22;-0.20;99.90
14188;DHT22;7175;51.978;5.330;2023-03-11T04:34:50;-0.20;99.90
14188;DHT22;7175;51.978;5.330;2023-03-11T04:37:18;-0.20;99.90
14188;DHT22;7175;51.978;5.330;2023-03-11T04:39:47;-0.20;99.90
14188;DHT22;7175;51.978;5.330;2023-03-11T04:42:19;-0.20;99.90
14188;DHT22;7175;51.978;5.330;2023-03-11T04:44:48;-0.20;99.90
14188;DHT22;7175;51.978;5.330;2023-03-11T04:47:16;-0.20;99.90
14188;DHT22;7175;51.978;5.330;2023-03-11T04:49:44;-0.20;99.90
14188;DHT22;7175;51.978;5.330;2023-03-11T04:52:12;-0.20;99.90
14188;DHT22;7175;51.978;5.330;2023-03-11T04:54:40;-0.30;99.90
14188;DHT22;7175;51.978;5.330;2023-03-11T04:57:09;-0.20;99.90
14188;DHT22;7175;51.978;5.330;2023-03-11T04:59:37;-0.30;99.90
14188;DHT22;7175;51.978;5.330;2023-03-11T05:02:06;-0.30;99.90
14188;DHT22;7175;51.978;5.330;2023-03-11T05:04:38;-0.30;99.90
14188;DHT22;7175;51.978;5.330;2023-03-11T05:07:06;-0.40;99.90
14188;DHT22;7175;51.978;5.330;2023-03-11T05:09:34;-0.40;99.90
14188;DHT22;7175;51.978;5.330;2023-03-11T05:12:03;-0.40;99.90
14188;DHT22;7175;51.978;5.330;2023-03-11T05:14:31;-0.50;99.90
14188;DHT22;7175;51.978;5.330;2023-03-11T05:16:59;-0.50;99.90
14188;DHT22;7175;51.978;5.330;2023-03-11T05:19:29;-0.50;99.90
14188;DHT22;7175;51.978;5.330;2023-03-11T05:22:01;-0.50;99.90
14188;DHT22;7175;51.978;5.330;2023-03-11T05:24:30;-0.50;99.90
14188;DHT22;7175;51.978;5.330;2023-03-11T05:26:58;-0.50;99.90
14188;DHT22;7175;51.978;5.330;2023-03-11T05:29:27;-0.50;99.90
14188;DHT22;7175;51.978;5.330;2023-03-11T05:31:55;-0.60;99.90
14188;DHT22;7175;51.978;5.330;2023-03-11T05:34:24;-0.60;99.90
14188;DHT22;7175;51.978;5.330;2023-03-11T05:36:53;-0.60;99.90
14188;DHT22;7175;51.978;5.330;2023-03-11T05:39:21;-0.70;99.90
14188;DHT22;7175;51.978;5.330;2023-03-11T05:41:49;-0.70;99.90
14188;DHT22;7175;51.978;5.330;2023-03-11T05:44:17;-0.70;99.90
14188;DHT22;7175;51.978;5.330;2023-03-11T05:46:45;-0.70;99.90
14188;DHT22;7175;51.978;5.330;2023-03-11T05:49:14;-0.70;99.90
14188;DHT22;7175;51.978;5.330;2023-03-11T05:51:42;-0.80;99.90
14188;DHT22;7175;51.978;5.330;2023-03-11T05:54:11;-0.80;99.90
14188;DHT22;7175;51.978;5.330;2023-03-11T05:56:42;-0.80;99.90
14188;DHT22;7175;51.978;5.330;2023-03-11T05:59:11;-0.80;99.90
14188;DHT22;7175;51.978;5.330;2023-03-11T06:01:42;-0.80;99.90
14188;DHT22;7175;51.978;5.330;2023-03-11T06:04:11;-0.80;99.90
14188;DHT22;7175;51.978;5.330;2023-03-11T06:06:40;-0.90;99.90
14188;DHT22;7175;51.978;5.330;2023-03-11T06:09:12;-0.90;99.90
14188;DHT22;7175;51.978;5.330;2023-03-11T06:11:40;-0.90;99.90
14188;DHT22;7175;51.978;5.330;2023-03-11T06:14:10;-0.90;99.90
14188;DHT22;7175;51.978;5.330;2023-03-11T06:16:39;-0.90;99.90
14188;DHT22;7175;51.978;5.330;2023-03-11T06:19:08;-0.90;99.90
14188;DHT22;7175;51.978;5.330;2023-03-11T06:21:36;-0.90;99.90
14188;DHT22;7175;51.978;5.330;2023-03-11T06:24:04;-0.90;99.90
14188;DHT22;7175;51.978;5.330;2023-03-11T06:26:34;-0.90;99.90
14188;DHT22;7175;51.978;5.330;2023-03-11T06:29:02;-0.90;99.90
14188;DHT22;7175;51.978;5.330;2023-03-11T06:31:30;-0.90;99.90
14188;DHT22;7175;51.978;5.330;2023-03-11T06:34:00;-0.80;99.90
14188;DHT22;7175;51.978;5.330;2023-03-11T06:36:28;-0.80;99.90
14188;DHT22;7175;51.978;5.330;2023-03-11T06:38:56;-0.80;99.90
14188;DHT22;7175;51.978;5.330;2023-03-11T06:41:24;-0.80;99.90
14188;DHT22;7175;51.978;5.330;2023-03-11T06:43:56;-0.80;99.90
14188;DHT22;7175;51.978;5.330;2023-03-11T06:46:25;-0.80;99.90
14188;DHT22;7175;51.978;5.330;2023-03-11T06:48:53;-0.80;99.90
14188;DHT22;7175;51.978;5.330;2023-03-11T06:51:21;-0.70;99.90
14188;DHT22;7175;51.978;5.330;2023-03-11T06:53:50;-0.60;99.90
14188;DHT22;7175;51.978;5.330;2023-03-11T06:56:19;-0.60;99.90
14188;DHT22;7175;51.978;5.330;2023-03-11T06:58:48;-0.50;99.90
14188;DHT22;7175;51.978;5.330;2023-03-11T07:01:18;-0.50;99.90
14188;DHT22;7175;51.978;5.330;2023-03-11T07:03:48;-0.50;99.90
14188;DHT22;7175;51.978;5.330;2023-03-11T07:06:18;-0.40;99.90
14188;DHT22;7175;51.978;5.330;2023-03-11T07:08:47;-0.30;99.90
14188;DHT22;7175;51.978;5.330;2023-03-11T07:11:17;-0.30;99.90
14188;DHT22;7175;51.978;5.330;2023-03-11T07:13:46;-0.20;99.90
14188;DHT22;7175;51.978;5.330;2023-03-11T07:16:17;-0.10;99.90
14188;DHT22;7175;51.978;5.330;2023-03-11T07:18:48;0.00;99.90
14188;DHT22;7175;51.978;5.330;2023-03-11T07:21:18;0.00;99.90
14188;DHT22;7175;51.978;5.330;2023-03-11T07:23:48;0.20;99.90
14188;DHT22;7175;51.978;5.330;2023-03-11T07:26:18;0.30;99.90
14188;DHT22;7175;51.978;5.330;2023-03-11T07:28:46;0.30;99.90
14188;DHT22;7175;51.978;5.330;2023-03-11T07:31:16;0.40;99.90
14188;DHT22;7175;51.978;5.330;2023-03-11T07:33:47;0.50;99.90
14188;DHT22;7175;51.978;5.330;2023-03-11T07:36:17;0.60;99.90
14188;DHT22;7175;51.978;5.330;2023-03-11T07:38:46;0.70;99.90
14188;DHT22;7175;51.978;5.330;2023-03-11T07:41:14;0.80;99.90
14188;DHT22;7175;51.978;5.330;2023-03-11T07:43:43;0.90;99.90
14188;DHT22;7175;51.978;5.330;2023-03-11T07:46:13;1.00;99.90
14188;DHT22;7175;51.978;5.330;2023-03-11T07:48:44;1.10;99.90
14188;DHT22;7175;51.978;5.330;2023-03-11T07:51:15;1.20;99.90
14188;DHT22;7175;51.978;5.330;2023-03-11T07:53:43;1.40;99.90
14188;DHT22;7175;51.978;5.330;2023-03-11T07:56:14;1.50;99.90
14188;DHT22;7175;51.978;5.330;2023-03-11T07:58:42;1.60;99.90
14188;DHT22;7175;51.978;5.330;2023-03-11T08:01:13;1.70;99.90
14188;DHT22;7175;51.978;5.330;2023-03-11T08:03:43;1.80;99.90
14188;DHT22;7175;51.978;5.330;2023-03-11T08:06:13;1.90;99.90
14188;DHT22;7175;51.978;5.330;2023-03-11T08:08:42;2.10;99.90
14188;DHT22;7175;51.978;5.330;2023-03-11T08:11:11;2.30;99.90
14188;DHT22;7175;51.978;5.330;2023-03-11T08:13:42;2.40;99.90
14188;DHT22;7175;51.978;5.330;2023-03-11T08:16:13;2.60;99.90
14188;DHT22;7175;51.978;5.330;2023-03-11T08:18:41;2.80;99.90
14188;DHT22;7175;51.978;5.330;2023-03-11T08:21:12;2.90;99.90
14188;DHT22;7175;51.978;5.330;2023-03-11T08:23:43;3.00;99.90
14188;DHT22;7175;51.978;5.330;2023-03-11T08:26:15;3.10;99.90
14188;DHT22;7175;51.978;5.330;2023-03-11T08:28:43;3.30;99.90
14188;DHT22;7175;51.978;5.330;2023-03-11T08:31:12;3.30;99.90
14188;DHT22;7175;51.978;5.330;2023-03-11T08:33:41;3.40;99.90
14188;DHT22;7175;51.978;5.330;2023-03-11T08:36:10;3.50;99.90
14188;DHT22;7175;51.978;5.330;2023-03-11T08:38:38;3.60;99.90
14188;DHT22;7175;51.978;5.330;2023-03-11T08:41:08;3.70;99.90
14188;DHT22;7175;51.978;5.330;2023-03-11T08:43:36;3.70;99.90
14188;DHT22;7175;51.978;5.330;2023-03-11T08:46:04;3.80;99.90
14188;DHT22;7175;51.978;5.330;2023-03-11T08:48:35;3.90;99.90
14188;DHT22;7175;51.978;5.330;2023-03-11T08:51:09;4.00;99.90
14188;DHT22;7175;51.978;5.330;2023-03-11T08:53:37;4.10;99.90
14188;DHT22;7175;51.978;5.330;2023-03-11T08:56:06;4.10;99.90
14188;DHT22;7175;51.978;5.330;2023-03-11T08:58:36;4.10;99.90
14188;DHT22;7175;51.978;5.330;2023-03-11T09:01:04;4.20;99.90
14188;DHT22;7175;51.978;5.330;2023-03-11T09:03:33;4.30;99.90
14188;DHT22;7175;51.978;5.330;2023-03-11T09:06:05;4.50;99.90
14188;DHT22;7175;51.978;5.330;2023-03-11T09:08:33;4.60;99.90
14188;DHT22;7175;51.978;5.330;2023-03-11T09:11:02;4.80;99.90
14188;DHT22;7175;51.978;5.330;2023-03-11T09:13:31;4.80;99.90
14188;DHT22;7175;51.978;5.330;2023-03-11T09:16:01;4.90;99.90
14188;DHT22;7175;51.978;5.330;2023-03-11T09:18:31;5.10;99.90
14188;DHT22;7175;51.978;5.330;2023-03-11T09:21:00;5.30;99.90
14188;DHT22;7175;51.978;5.330;2023-03-11T09:23:29;5.60;99.90
14188;DHT22;7175;51.978;5.330;2023-03-11T09:25:57;5.80;99.90
14188;DHT22;7175;51.978;5.330;2023-03-11T09:28:25;5.90;99.90
14188;DHT22;7175;51.978;5.330;2023-03-11T09:30:54;5.80;99.90
14188;DHT22;7175;51.978;5.330;2023-03-11T09:33:23;5.70;99.90
14188;DHT22;7175;51.978;5.330;2023-03-11T09:35:51;5.70;99.90
14188;DHT22;7175;51.978;5.330;2023-03-11T09:38:19;5.80;99.90
14188;DHT22;7175;51.978;5.330;2023-03-11T09:40:57;5.80;99.90
14188;DHT22;7175;51.978;5.330;2023-03-11T09:43:47;5.80;99.90
14188;DHT22;7175;51.978;5.330;2023-03-11T09:46:36;6.00;99.90
14188;DHT22;7175;51.978;5.330;2023-03-11T09:49:17;5.90;99.90
14188;DHT22;7175;51.978;5.330;2023-03-11T09:51:50;6.10;99.90
14188;DHT22;7175;51.978;5.330;2023-03-11T09:54:20;6.40;99.90
14188;DHT22;7175;51.978;5.330;2023-03-11T09:56:49;6.30;99.90
14188;DHT22;7175;51.978;5.330;2023-03-11T09:59:20;6.30;99.90
14188;DHT22;7175;51.978;5.330;2023-03-11T10:01:54;6.30;99.90
14188;DHT22;7175;51.978;5.330;2023-03-11T10:04:27;6.20;99.90
14188;DHT22;7175;51.978;5.330;2023-03-11T10:06:58;6.40;99.90
14188;DHT22;7175;51.978;5.330;2023-03-11T10:09:34;6.40;99.90
14188;DHT22;7175;51.978;5.330;2023-03-11T10:12:13;6.50;99.90
14188;DHT22;7175;51.978;5.330;2023-03-11T10:14:58;6.40;99.90
14188;DHT22;7175;51.978;5.330;2023-03-11T10:20:41;6.20;99.90
14188;DHT22;7175;51.978;5.330;2023-03-11T10:23:21;6.00;99.90
14188;DHT22;7175;51.978;5.330;2023-03-11T10:25:58;6.10;99.90
14188;DHT22;7175;51.978;5.330;2023-03-11T10:28:31;6.30;99.90
14188;DHT22;7175;51.978;5.330;2023-03-11T10:31:04;6.70;99.90
14188;DHT22;7175;51.978;5.330;2023-03-11T10:33:37;6.70;99.90
14188;DHT22;7175;51.978;5.330;2023-03-11T10:36:12;6.70;99.90
14188;DHT22;7175;51.978;5.330;2023-03-11T10:38:45;6.70;99.90
14188;DHT22;7175;51.978;5.330;2023-03-11T10:41:17;6.30;99.90
14188;DHT22;7175;51.978;5.330;2023-03-11T10:43:51;6.20;99.90
14188;DHT22;7175;51.978;5.330;2023-03-11T10:46:24;6.20;99.90
14188;DHT22;7175;51.978;5.330;2023-03-11T10:48:52;6.20;99.90
14188;DHT22;7175;51.978;5.330;2023-03-11T10:51:23;6.00;99.90
14188;DHT22;7175;51.978;5.330;2023-03-11T10:53:54;6.00;99.90
14188;DHT22;7175;51.978;5.330;2023-03-11T10:56:30;6.20;99.90
14188;DHT22;7175;51.978;5.330;2023-03-11T10:58:59;6.20;99.90
14188;DHT22;7175;51.978;5.330;2023-03-11T11:01:28;6.40;99.90
14188;DHT22;7175;51.978;5.330;2023-03-11T11:03:59;6.20;99.90
14188;DHT22;7175;51.978;5.330;2023-03-11T11:06:30;6.20;99.90
14188;DHT22;7175;51.978;5.330;2023-03-11T11:09:16;6.70;99.90
14188;DHT22;7175;51.978;5.330;2023-03-11T11:12:00;6.70;99.90
14188;DHT22;7175;51.978;5.330;2023-03-11T11:14:46;6.70;99.90
14188;DHT22;7175;51.978;5.330;2023-03-11T11:17:18;6.80;99.90
14188;DHT22;7175;51.978;5.330;2023-03-11T11:19:48;7.00;99.90
14188;DHT22;7175;51.978;5.330;2023-03-11T11:22:19;7.30;99.90
14188;DHT22;7175;51.978;5.330;2023-03-11T11:24:50;7.40;99.90
14188;DHT22;7175;51.978;5.330;2023-03-11T11:27:20;7.50;99.90
14188;DHT22;7175;51.978;5.330;2023-03-11T11:30:12;7.60;99.90
14188;DHT22;7175;51.978;5.330;2023-03-11T11:32:41;7.70;99.90
14188;DHT22;7175;51.978;5.330;2023-03-11T11:35:11;7.70;99.90
14188;DHT22;7175;51.978;5.330;2023-03-11T11:37:44;7.90;99.90
14188;DHT22;7175;51.978;5.330;2023-03-11T11:40:27;8.00;99.90
14188;DHT22;7175;51.978;5.330;2023-03-11T11:42:58;8.20;99.90
14188;DHT22;7175;51.978;5.330;2023-03-11T11:45:33;8.10;99.90
14188;DHT22;7175;51.978;5.330;2023-03-11T11:48:06;8.10;99.90
14188;DHT22;7175;51.978;5.330;2023-03-11T11:50:42;8.10;99.90
14188;DHT22;7175;51.978;5.330;2023-03-11T11:53:21;8.30;99.90
14188;DHT22;7175;51.978;5.330;2023-03-11T11:55:52;8.20;99.90
14188;DHT22;7175;51.978;5.330;2023-03-11T11:58:20;8.30;99.90
14188;DHT22;7175;51.978;5.330;2023-03-11T12:01:09;8.50;99.90
14188;DHT22;7175;51.978;5.330;2023-03-11T12:06:56;8.30;99.90
14188;DHT22;7175;51.978;5.330;2023-03-11T12:09:32;8.60;99.90
14188;DHT22;7175;51.978;5.330;2023-03-11T12:12:08;8.60;99.90
14188;DHT22;7175;51.978;5.330;2023-03-11T12:14:43;8.80;99.90
14188;DHT22;7175;51.978;5.330;2023-03-11T12:17:16;8.50;99.90
14188;DHT22;7175;51.978;5.330;2023-03-11T12:19:50;8.80;99.90
14188;DHT22;7175;51.978;5.330;2023-03-11T12:22:50;9.10;99.90
14188;DHT22;7175;51.978;5.330;2023-03-11T12:25:29;9.20;99.90
14188;DHT22;7175;51.978;5.330;2023-03-11T12:28:04;9.00;99.90
14188;DHT22;7175;51.978;5.330;2023-03-11T12:30:41;9.20;99.90
14188;DHT22;7175;51.978;5.330;2023-03-11T12:33:15;9.20;99.90
14188;DHT22;7175;51.978;5.330;2023-03-11T12:35:49;9.30;99.90
14188;DHT22;7175;51.978;5.330;2023-03-11T12:38:26;9.40;99.90
14188;DHT22;7175;51.978;5.330;2023-03-11T12:41:03;9.70;99.90
14188;DHT22;7175;51.978;5.330;2023-03-11T12:47:01;9.70;99.90
14188;DHT22;7175;51.978;5.330;2023-03-11T12:49:31;9.70;99.90
14188;DHT22;7175;51.978;5.330;2023-03-11T12:52:05;9.50;99.90
14188;DHT22;7175;51.978;5.330;2023-03-11T12:54:44;9.80;99.90
14188;DHT22;7175;51.978;5.330;2023-03-11T12:57:30;9.90;99.90
14188;DHT22;7175;51.978;5.330;2023-03-11T13:00:26;9.70;99.90
14188;DHT22;7175;51.978;5.330;2023-03-11T13:03:26;10.00;99.90
14188;DHT22;7175;51.978;5.330;2023-03-11T13:06:10;10.20;99.90
14188;DHT22;7175;51.978;5.330;2023-03-11T13:08:45;10.50;99.90
14188;DHT22;7175;51.978;5.330;2023-03-11T13:11:35;10.20;99.90
14188;DHT22;7175;51.978;5.330;2023-03-11T13:14:23;10.40;99.90
14188;DHT22;7175;51.978;5.330;2023-03-11T13:16:53;10.70;99.90
14188;DHT22;7175;51.978;5.330;2023-03-11T13:19:49;10.80;99.90
14188;DHT22;7175;51.978;5.330;2023-03-11T13:25:39;10.50;99.90
14188;DHT22;7175;51.978;5.330;2023-03-11T13:28:29;10.30;99.90
14188;DHT22;7175;51.978;5.330;2023-03-11T13:31:12;10.40;99.90
14188;DHT22;7175;51.978;5.330;2023-03-11T13:33:51;10.00;99.90
14188;DHT22;7175;51.978;5.330;2023-03-11T13:36:46;10.40;99.90
14188;DHT22;7175;51.978;5.330;2023-03-11T13:39:38;10.30;99.90
14188;DHT22;7175;51.978;5.330;2023-03-11T13:42:20;10.30;99.90
14188;DHT22;7175;51.978;5.330;2023-03-11T13:44:51;10.20;99.90
14188;DHT22;7175;51.978;5.330;2023-03-11T13:47:20;10.20;99.90
14188;DHT22;7175;51.978;5.330;2023-03-11T13:49:52;10.20;99.90
14188;DHT22;7175;51.978;5.330;2023-03-11T13:52:25;10.50;99.90
14188;DHT22;7175;51.978;5.330;2023-03-11T13:54:58;10.00;99.90
14188;DHT22;7175;51.978;5.330;2023-03-11T13:57:29;9.90;99.90
14188;DHT22;7175;51.978;5.330;2023-03-11T14:00:12;9.90;99.90
14188;DHT22;7175;51.978;5.330;2023-03-11T14:02:45;9.70;99.90
14188;DHT22;7175;51.978;5.330;2023-03-11T14:05:19;9.40;99.90
14188;DHT22;7175;51.978;5.330;2023-03-11T14:07:48;9.30;99.90
14188;DHT22;7175;51.978;5.330;2023-03-11T14:10:25;9.40;99.90
14188;DHT22;7175;51.978;5.330;2023-03-11T14:13:14;9.60;99.90
14188;DHT22;7175;51.978;5.330;2023-03-11T14:15:53;9.60;99.90
14188;DHT22;7175;51.978;5.330;2023-03-11T14:18:34;9.90;99.90
14188;DHT22;7175;51.978;5.330;2023-03-11T14:21:04;9.60;99.90
14188;DHT22;7175;51.978;5.330;2023-03-11T14:23:35;9.50;99.90
14188;DHT22;7175;51.978;5.330;2023-03-11T14:26:08;9.60;99.90
14188;DHT22;7175;51.978;5.330;2023-03-11T14:28:42;9.10;99.90
14188;DHT22;7175;51.978;5.330;2023-03-11T14:31:22;9.20;99.90
14188;DHT22;7175;51.978;5.330;2023-03-11T14:33:58;9.10;99.90
14188;DHT22;7175;51.978;5.330;2023-03-11T14:36:38;8.80;99.90
14188;DHT22;7175;51.978;5.330;2023-03-11T14:39:25;9.10;99.90
14188;DHT22;7175;51.978;5.330;2023-03-11T14:41:57;9.10;99.90
14188;DHT22;7175;51.978;5.330;2023-03-11T14:44:27;8.80;99.90
14188;DHT22;7175;51.978;5.330;2023-03-11T14:47:10;8.80;99.90
14188;DHT22;7175;51.978;5.330;2023-03-11T14:49:41;9.00;99.90
14188;DHT22;7175;51.978;5.330;2023-03-11T14:52:15;8.80;99.90
14188;DHT22;7175;51.978;5.330;2023-03-11T14:54:46;8.80;99.90
14188;DHT22;7175;51.978;5.330;2023-03-11T14:57:20;8.80;99.90
14188;DHT22;7175;51.978;5.330;2023-03-11T14:59:50;8.90;99.90
14188;DHT22;7175;51.978;5.330;2023-03-11T15:02:37;8.70;99.90
14188;DHT22;7175;51.978;5.330;2023-03-11T15:05:14;8.60;99.90
14188;DHT22;7175;51.978;5.330;2023-03-11T15:07:43;8.50;99.90
14188;DHT22;7175;51.978;5.330;2023-03-11T15:10:13;8.40;99.90
14188;DHT22;7175;51.978;5.330;2023-03-11T15:12:42;8.30;99.90
14188;DHT22;7175;51.978;5.330;2023-03-11T15:15:21;8.30;99.90
14188;DHT22;7175;51.978;5.330;2023-03-11T15:17:53;8.20;99.90
14188;DHT22;7175;51.978;5.330;2023-03-11T15:20:26;8.20;99.90
14188;DHT22;7175;51.978;5.330;2023-03-11T15:22:56;8.10;99.90
14188;DHT22;7175;51.978;5.330;2023-03-11T15:25:29;8.00;99.90
14188;DHT22;7175;51.978;5.330;2023-03-11T15:27:57;8.00;99.90
14188;DHT22;7175;51.978;5.330;2023-03-11T15:30:27;7.90;99.90
14188;DHT22;7175;51.978;5.330;2023-03-11T15:32:57;7.90;99.90
14188;DHT22;7175;51.978;5.330;2023-03-11T15:35:28;7.90;99.90
14188;DHT22;7175;51.978;5.330;2023-03-11T15:38:20;7.90;99.90
14188;DHT22;7175;51.978;5.330;2023-03-11T15:40:52;7.80;99.90
14188;DHT22;7175;51.978;5.330;2023-03-11T15:43:27;7.80;99.90
14188;DHT22;7175;51.978;5.330;2023-03-11T15:45:56;7.80;99.90
14188;DHT22;7175;51.978;5.330;2023-03-11T15:48:26;7.70;99.90
14188;DHT22;7175;51.978;5.330;2023-03-11T15:50:58;7.70;99.90
14188;DHT22;7175;51.978;5.330;2023-03-11T15:53:27;7.70;99.90
14188;DHT22;7175;51.978;5.330;2023-03-11T15:55:57;7.70;99.90
14188;DHT22;7175;51.978;5.330;2023-03-11T15:58:35;7.60;99.90
14188;DHT22;7175;51.978;5.330;2023-03-11T16:01:04;7.50;99.90
14188;DHT22;7175;51.978;5.330;2023-03-11T16:03:32;7.50;99.90
14188;DHT22;7175;51.978;5.330;2023-03-11T16:06:03;7.40;99.90
14188;DHT22;7175;51.978;5.330;2023-03-11T16:08:31;7.40;99.90
14188;DHT22;7175;51.978;5.330;2023-03-11T16:11:00;7.30;99.90
14188;DHT22;7175;51.978;5.330;2023-03-11T16:13:28;7.20;99.90
14188;DHT22;7175;51.978;5.330;2023-03-11T16:15:56;7.10;99.90
14188;DHT22;7175;51.978;5.330;2023-03-11T16:18:25;7.10;99.90
14188;DHT22;7175;51.978;5.330;2023-03-11T16:20:53;7.10;99.90
14188;DHT22;7175;51.978;5.330;2023-03-11T16:23:25;7.00;99.90
14188;DHT22;7175;51.978;5.330;2023-03-11T16:25:56;7.00;99.90
14188;DHT22;7175;51.978;5.330;2023-03-11T16:28:25;7.00;99.90
14188;DHT22;7175;51.978;5.330;2023-03-11T16:30:54;6.90;99.90
14188;DHT22;7175;51.978;5.330;2023-03-11T16:33:22;6.80;99.90
14188;DHT22;7175;51.978;5.330;2023-03-11T16:35:50;6.80;99.90
14188;DHT22;7175;51.978;5.330;2023-03-11T16:38:18;6.80;99.90